createdAt,value
2022-10-26T00:00:48.055Z,100.00
2022-10-26T00:03:17.868Z,100.00
2022-10-26T00:05:46.204Z,100.00
2022-10-26T00:08:12.983Z,100.00
2022-10-26T00:10:40.617Z,100.00
2022-10-26T00:13:09.871Z,100.00
2022-10-26T00:15:41.335Z,100.00
2022-10-26T00:18:08.679Z,100.00
2022-10-26T00:23:15.466Z,100.00
2022-10-26T00:25:42.942Z,100.00
2022-10-26T00:28:10.888Z,100.00
2022-10-26T00:30:41.596Z,100.00
2022-10-26T00:33:11.235Z,100.00
2022-10-26T00:35:46.030Z,100.00
2022-10-26T00:40:55.575Z,100.00
2022-10-26T00:43:29.926Z,100.00
2022-10-26T00:45:57.902Z,100.00
2022-10-26T00:48:29.691Z,100.00
2022-10-26T00:53:37.852Z,100.00
2022-10-26T00:56:05.203Z,100.00
2022-10-26T01:01:12.759Z,100.00
2022-10-26T01:03:39.678Z,100.00
2022-10-26T01:08:52.657Z,100.00
2022-10-26T01:11:19.297Z,100.00
2022-10-26T01:16:45.267Z,100.00
2022-10-26T01:19:24.716Z,100.00
2022-10-26T01:24:51.067Z,100.00
2022-10-26T01:27:32.094Z,100.00
2022-10-26T01:29:58.687Z,100.00
2022-10-26T01:32:25.248Z,100.00
2022-10-26T01:34:54.403Z,100.00
2022-10-26T01:37:25.263Z,100.00
2022-10-26T01:39:58.635Z,100.00
2022-10-26T01:42:25.619Z,100.00
2022-10-26T01:45:02.574Z,100.00
2022-10-26T01:47:32.662Z,100.00
2022-10-26T01:52:47.531Z,100.00
2022-10-26T02:04:32.084Z,100.00
2022-10-26T02:07:19.471Z,100.00
2022-10-26T02:12:59.431Z,100.00
2022-10-26T02:15:31.312Z,100.00
2022-10-26T02:20:45.701Z,100.00
2022-10-26T02:23:20.660Z,100.00
2022-10-26T02:25:51.294Z,100.00
2022-10-26T02:28:22.304Z,100.00
2022-10-26T02:30:50.831Z,100.00
2022-10-26T02:33:17.764Z,100.00
2022-10-26T02:35:47.582Z,100.00
2022-10-26T02:38:18.663Z,100.00
2022-10-26T02:40:46.638Z,100.00
2022-10-26T02:43:17.858Z,100.00
2022-10-26T02:45:46.470Z,100.00
2022-10-26T02:48:14.446Z,100.00
2022-10-26T02:50:48.359Z,100.00
2022-10-26T02:53:38.143Z,100.00
2022-10-26T02:56:06.975Z,100.00
2022-10-26T03:03:58.785Z,100.00
2022-10-26T03:06:27.576Z,100.00
2022-10-26T03:08:56.159Z,100.00
2022-10-26T03:11:23.303Z,100.00
2022-10-26T03:13:51.107Z,100.00
2022-10-26T03:16:21.306Z,100.00
2022-10-26T03:18:52.196Z,100.00
2022-10-26T03:21:21.032Z,100.00
2022-10-26T03:23:48.363Z,100.00
2022-10-26T03:26:21.471Z,100.00
2022-10-26T03:28:48.786Z,100.00
2022-10-26T03:31:23.735Z,100.00
2022-10-26T03:33:51.345Z,100.00
2022-10-26T03:36:21.644Z,100.00
2022-10-26T03:38:48.437Z,100.00
2022-10-26T03:41:19.216Z,100.00
2022-10-26T03:43:51.752Z,100.00
2022-10-26T03:46:20.015Z,100.00
2022-10-26T03:48:56.524Z,100.00
2022-10-26T03:57:00.171Z,100.00
2022-10-26T04:04:58.155Z,100.00
2022-10-26T04:07:24.787Z,100.00
2022-10-26T04:09:51.613Z,100.00
2022-10-26T04:12:20.226Z,100.00
2022-10-26T04:17:26.697Z,100.00
2022-10-26T04:19:53.666Z,100.00
2022-10-26T04:22:20.387Z,100.00
2022-10-26T04:30:25.746Z,100.00
2022-10-26T04:32:53.108Z,100.00
2022-10-26T04:35:26.680Z,100.00
2022-10-26T04:40:47.724Z,100.00
2022-10-26T04:43:14.565Z,100.00
2022-10-26T04:45:43.814Z,100.00
2022-10-26T04:48:16.796Z,100.00
2022-10-26T04:50:49.531Z,100.00
2022-10-26T04:53:16.620Z,100.00
2022-10-26T04:58:24.495Z,100.00
2022-10-26T05:00:53.167Z,100.00
2022-10-26T05:03:21.953Z,100.00
2022-10-26T05:05:48.798Z,100.00
2022-10-26T05:08:16.191Z,100.00
2022-10-26T05:10:51.622Z,100.00
2022-10-26T05:16:00.736Z,100.00
2022-10-26T05:21:12.823Z,100.00
2022-10-26T05:23:42.062Z,100.00
2022-10-26T05:26:12.200Z,100.00
2022-10-26T05:28:40.395Z,100.00
2022-10-26T05:31:07.818Z,100.00
2022-10-26T05:33:36.598Z,100.00
2022-10-26T05:36:07.939Z,100.00
2022-10-26T05:41:21.751Z,100.00
2022-10-26T05:43:48.950Z,100.00
2022-10-26T05:46:30.232Z,100.00
2022-10-26T05:49:01.409Z,100.00
2022-10-26T05:51:30.348Z,100.00
2022-10-26T05:54:12.939Z,100.00
2022-10-26T05:56:42.344Z,100.00
2022-10-26T06:01:44.344Z,100.00
2022-10-26T06:04:26.678Z,100.00
2022-10-26T06:06:58.105Z,100.00
2022-10-26T06:09:27.750Z,100.00
2022-10-26T06:11:56.664Z,100.00
2022-10-26T06:17:27.384Z,100.00
2022-10-26T06:20:23.304Z,100.00
2022-10-26T06:25:50.739Z,100.00
2022-10-26T06:28:20.790Z,100.00
2022-10-26T06:33:33.743Z,100.00
2022-10-26T06:36:06.542Z,100.00
2022-10-26T06:41:19.559Z,100.00
2022-10-26T06:43:47.064Z,100.00
2022-10-26T06:49:29.772Z,100.00
2022-10-26T06:54:26.345Z,100.00
2022-10-26T07:02:20.428Z,100.00
2022-10-26T07:04:47.932Z,100.00
2022-10-26T07:07:24.566Z,100.00
2022-10-26T07:12:33.308Z,100.00
2022-10-26T07:15:02.673Z,100.00
2022-10-26T07:17:32.287Z,100.00
2022-10-26T07:20:06.899Z,100.00
2022-10-26T07:22:54.215Z,100.00
2022-10-26T07:25:24.335Z,100.00
2022-10-26T07:28:05.028Z,100.00
2022-10-26T07:33:17.344Z,100.00
2022-10-26T07:35:44.293Z,100.00
2022-10-26T07:38:11.260Z,100.00
2022-10-26T07:40:43.257Z,100.00
2022-10-26T07:43:13.668Z,100.00
2022-10-26T07:48:27.315Z,100.00
2022-10-26T07:50:54.212Z,100.00
2022-10-26T07:53:26.695Z,100.00
2022-10-26T07:55:59.995Z,100.00
2022-10-26T07:58:27.561Z,100.00
2022-10-26T08:01:06.176Z,100.00
2022-10-26T08:03:37.049Z,100.00
2022-10-26T08:06:06.030Z,100.00
2022-10-26T08:08:33.165Z,100.00
2022-10-26T08:11:00.488Z,100.00
2022-10-26T08:13:27.237Z,100.00
2022-10-26T08:16:04.089Z,100.00
2022-10-26T08:18:30.734Z,100.00
2022-10-26T08:21:10.292Z,100.00
2022-10-26T08:23:38.574Z,100.00
2022-10-26T08:26:06.222Z,100.00
2022-10-26T08:28:38.051Z,100.00
2022-10-26T08:31:05.341Z,100.00
2022-10-26T08:33:32.147Z,100.00
2022-10-26T08:36:00.115Z,100.00
2022-10-26T08:38:26.967Z,100.00
2022-10-26T08:40:54.232Z,100.00
2022-10-26T08:43:31.477Z,100.00
2022-10-26T08:45:59.707Z,100.00
2022-10-26T08:48:32.247Z,100.00
2022-10-26T08:51:09.071Z,100.00
2022-10-26T08:53:45.930Z,100.00
2022-10-26T08:56:19.386Z,100.00
2022-10-26T08:58:47.735Z,100.00
2022-10-26T09:01:14.683Z,100.00
2022-10-26T09:03:42.667Z,100.00
2022-10-26T09:06:20.784Z,100.00
2022-10-26T09:08:59.230Z,100.00
2022-10-26T09:11:28.813Z,100.00
2022-10-26T09:14:09.573Z,100.00
2022-10-26T09:16:39.157Z,100.00
2022-10-26T09:19:11.541Z,100.00
2022-10-26T09:32:50.829Z,76.41
2022-10-26T09:35:21.812Z,77.87
2022-10-26T09:37:57.470Z,81.15
2022-10-26T09:40:29.646Z,79.00
2022-10-26T09:45:49.018Z,73.08
2022-10-26T09:48:30.798Z,68.51
2022-10-26T09:51:10.573Z,68.91
2022-10-26T09:53:38.473Z,68.22
2022-10-26T09:58:54.988Z,62.64
2022-10-26T10:04:20.859Z,63.76
2022-10-26T10:06:56.720Z,60.07
2022-10-26T10:12:09.088Z,63.22
2022-10-26T10:14:47.072Z,62.14
2022-10-26T10:17:22.194Z,57.89
2022-10-26T10:19:51.678Z,61.69
2022-10-26T10:22:38.556Z,58.01
2022-10-26T10:27:59.816Z,59.54
2022-10-26T10:30:31.693Z,60.46
2022-10-26T10:33:15.012Z,61.00
2022-10-26T10:35:49.592Z,63.50
2022-10-26T10:38:17.797Z,63.56
2022-10-26T10:40:49.771Z,63.75
2022-10-26T10:43:16.946Z,64.34
2022-10-26T10:45:59.923Z,63.13
2022-10-26T10:48:29.493Z,54.19
2022-10-26T10:51:07.819Z,52.86
2022-10-26T10:53:38.077Z,53.36
2022-10-26T10:56:11.527Z,55.45
2022-10-26T10:58:54.349Z,55.22
2022-10-26T11:01:26.993Z,52.44
2022-10-26T11:04:02.609Z,54.03
2022-10-26T11:06:29.330Z,51.01
2022-10-26T11:09:10.004Z,47.44
2022-10-26T11:11:41.732Z,46.31
2022-10-26T11:14:12.710Z,47.83
2022-10-26T11:16:42.825Z,45.95
2022-10-26T11:19:17.296Z,47.07
2022-10-26T11:21:44.634Z,46.56
2022-10-26T11:24:14.154Z,45.61
2022-10-26T11:29:38.248Z,36.85
2022-10-26T11:32:09.326Z,40.56
2022-10-26T11:34:36.138Z,40.10
2022-10-26T11:39:58.663Z,37.61
2022-10-26T11:42:26.780Z,37.22
2022-10-26T11:44:56.144Z,38.00
2022-10-26T11:47:24.648Z,37.61
2022-10-26T11:49:58.122Z,35.57
2022-10-26T11:52:37.011Z,34.80
2022-10-26T11:57:55.335Z,38.97
2022-10-26T12:00:22.737Z,38.14
2022-10-26T12:02:54.446Z,40.51
2022-10-26T12:11:19.111Z,39.58
2022-10-26T12:13:48.253Z,40.45
2022-10-26T12:50:24.517Z,49.52
2022-10-26T12:52:53.361Z,53.66
2022-10-26T12:55:21.097Z,56.52
2022-10-26T12:58:01.691Z,59.96
2022-10-26T13:00:29.310Z,61.22
2022-10-26T13:03:00.088Z,63.32
2022-10-26T13:05:32.872Z,66.27
2022-10-26T13:08:09.982Z,68.34
2022-10-26T13:10:37.393Z,69.31
2022-10-26T13:13:05.695Z,71.88
2022-10-26T13:15:39.806Z,72.60
2022-10-26T13:18:06.973Z,74.54
2022-10-26T13:20:34.237Z,77.71
2022-10-26T13:25:29.608Z,85.05
2022-10-26T13:30:46.292Z,97.15
2022-10-26T13:33:20.832Z,99.09
2022-10-26T13:35:47.671Z,98.40
2022-10-26T13:38:24.793Z,98.11
2022-10-26T13:40:55.645Z,98.72
2022-10-26T13:43:25.290Z,97.15
2022-10-26T13:46:13.162Z,96.48
2022-10-26T13:48:42.215Z,100.00
2022-10-26T13:51:36.393Z,100.00
2022-10-26T13:54:04.670Z,100.00
2022-10-26T13:56:33.096Z,100.00
2022-10-26T14:01:46.924Z,100.00
2022-10-26T14:07:00.360Z,100.00
2022-10-26T14:09:27.510Z,100.00
2022-10-26T14:12:00.352Z,100.00
2022-10-26T14:17:25.435Z,100.00
2022-10-26T14:19:57.460Z,100.00
2022-10-26T14:25:35.935Z,100.00
2022-10-26T14:28:22.779Z,100.00
2022-10-26T14:30:49.573Z,100.00
2022-10-26T14:33:21.407Z,100.00
2022-10-26T14:49:23.249Z,100.00
2022-10-26T14:51:50.196Z,100.00
2022-10-26T14:54:21.174Z,100.00
2022-10-26T14:59:32.834Z,100.00
2022-10-26T15:01:59.635Z,100.00
2022-10-26T15:04:34.209Z,100.00
2022-10-26T15:07:13.172Z,100.00
2022-10-26T15:09:43.809Z,100.00
2022-10-26T15:12:20.702Z,100.00
2022-10-26T15:17:36.736Z,100.00
2022-10-26T15:20:08.885Z,100.00
2022-10-26T15:28:24.271Z,100.00
2022-10-26T15:31:04.869Z,100.00
2022-10-26T15:36:09.055Z,100.00
2022-10-26T15:38:35.893Z,100.00
2022-10-26T15:41:03.876Z,100.00
2022-10-26T15:43:30.711Z,100.00
2022-10-26T15:45:58.164Z,100.00
2022-10-26T15:48:29.325Z,100.00
2022-10-26T15:50:56.245Z,100.00
2022-10-26T15:53:23.904Z,100.00
2022-10-26T15:55:51.794Z,100.00
2022-10-26T15:58:18.719Z,100.00
2022-10-26T16:00:45.687Z,100.00
2022-10-26T16:03:23.471Z,100.00
2022-10-26T16:06:00.349Z,100.00
2022-10-26T16:08:27.666Z,100.00
2022-10-26T16:10:55.703Z,100.00
2022-10-26T16:13:22.597Z,100.00
2022-10-26T16:15:49.351Z,100.00
2022-10-26T16:18:16.114Z,100.00
2022-10-26T16:20:45.059Z,100.00
2022-10-26T16:23:13.802Z,100.00
2022-10-26T16:25:41.872Z,100.00
2022-10-26T16:28:09.572Z,100.00
2022-10-26T16:30:37.079Z,100.00
2022-10-26T16:33:03.914Z,100.00
2022-10-26T16:35:30.644Z,100.00
2022-10-26T16:37:57.278Z,100.00
2022-10-26T16:40:24.087Z,100.00
2022-10-26T16:42:51.061Z,100.00
2022-10-26T16:45:18.081Z,100.00
2022-10-26T16:47:44.838Z,100.00
2022-10-26T16:50:12.087Z,100.00
2022-10-26T16:52:39.005Z,100.00
2022-10-26T16:55:06.635Z,100.00
2022-10-26T16:57:33.401Z,100.00
2022-10-26T17:00:00.115Z,100.00
2022-10-26T17:02:26.857Z,100.00
2022-10-26T17:04:53.535Z,100.00
2022-10-26T17:07:20.115Z,100.00
2022-10-26T17:09:46.643Z,100.00
2022-10-26T17:12:13.417Z,100.00
2022-10-26T17:14:40.232Z,100.00
2022-10-26T17:17:06.860Z,100.00
2022-10-26T17:19:33.490Z,100.00
2022-10-26T17:22:02.688Z,100.00
2022-10-26T17:24:31.691Z,100.00
2022-10-26T17:26:59.714Z,100.00
2022-10-26T17:29:26.509Z,100.00
2022-10-26T17:31:53.167Z,100.00
2022-10-26T17:34:19.784Z,100.00
2022-10-26T17:36:46.341Z,100.00
2022-10-26T17:39:13.010Z,100.00
2022-10-26T17:41:39.690Z,100.00
2022-10-26T17:44:06.398Z,100.00
2022-10-26T17:46:34.142Z,100.00
2022-10-26T17:49:01.074Z,100.00
2022-10-26T17:51:28.653Z,100.00
2022-10-26T17:53:55.460Z,100.00
2022-10-26T17:56:26.481Z,100.00
2022-10-26T17:59:00.236Z,100.00
2022-10-26T18:01:35.319Z,100.00
2022-10-26T18:06:46.296Z,100.00
2022-10-26T18:09:13.687Z,100.00
2022-10-26T18:11:41.647Z,100.00
2022-10-26T18:14:09.119Z,100.00
2022-10-26T18:16:37.356Z,100.00
2022-10-26T18:19:05.259Z,100.00
2022-10-26T18:21:32.850Z,100.00
2022-10-26T18:23:59.596Z,100.00
2022-10-26T18:26:28.926Z,100.00
2022-10-26T18:28:56.141Z,100.00
2022-10-26T18:31:23.201Z,100.00
2022-10-26T18:33:50.125Z,100.00
2022-10-26T18:36:18.023Z,100.00
2022-10-26T18:38:44.627Z,100.00
2022-10-26T18:41:11.854Z,100.00
2022-10-26T18:43:42.151Z,100.00
2022-10-26T18:46:09.928Z,100.00
2022-10-26T18:48:36.719Z,100.00
2022-10-26T18:51:04.116Z,100.00
2022-10-26T18:53:32.203Z,100.00
2022-10-26T18:56:02.359Z,100.00
2022-10-26T18:58:29.748Z,100.00
2022-10-26T19:01:04.416Z,100.00
2022-10-26T19:03:30.978Z,100.00
2022-10-26T19:05:57.503Z,100.00
2022-10-26T19:08:27.814Z,100.00
2022-10-26T19:10:54.876Z,100.00
2022-10-26T19:13:21.545Z,100.00
2022-10-26T19:15:48.083Z,100.00
2022-10-26T19:18:14.736Z,100.00
2022-10-26T19:20:42.774Z,100.00
2022-10-26T19:23:11.748Z,100.00
2022-10-26T19:25:38.286Z,100.00
2022-10-26T19:28:04.860Z,100.00
2022-10-26T19:30:33.364Z,100.00
2022-10-26T19:33:00.267Z,100.00
2022-10-26T19:35:26.908Z,100.00
2022-10-26T19:37:53.458Z,100.00
2022-10-26T19:40:19.982Z,100.00
2022-10-26T19:42:46.690Z,100.00
2022-10-26T19:45:13.360Z,100.00
2022-10-26T19:47:40.084Z,100.00
2022-10-26T19:50:07.328Z,100.00
2022-10-26T19:52:33.921Z,100.00
2022-10-26T19:55:00.519Z,100.00
2022-10-26T19:57:27.041Z,100.00
2022-10-26T19:59:53.730Z,100.00
2022-10-26T20:02:20.410Z,100.00
2022-10-26T20:04:47.067Z,100.00
2022-10-26T20:07:15.365Z,100.00
2022-10-26T20:09:42.146Z,100.00
2022-10-26T20:12:12.849Z,100.00
2022-10-26T20:14:39.880Z,100.00
2022-10-26T20:17:07.020Z,100.00
2022-10-26T20:19:33.628Z,100.00
2022-10-26T20:22:00.277Z,100.00
2022-10-26T20:24:26.984Z,100.00
2022-10-26T20:26:53.631Z,100.00
2022-10-26T20:29:21.764Z,100.00
2022-10-26T20:31:51.506Z,100.00
2022-10-26T20:34:20.404Z,100.00
2022-10-26T20:36:47.191Z,100.00
2022-10-26T20:39:14.031Z,100.00
2022-10-26T20:41:41.513Z,100.00
2022-10-26T20:44:12.736Z,100.00
2022-10-26T20:46:39.638Z,100.00
2022-10-26T20:49:07.623Z,100.00
2022-10-26T20:51:51.975Z,100.00
2022-10-26T20:54:28.726Z,100.00
2022-10-26T20:56:55.949Z,100.00
2022-10-26T20:59:25.307Z,100.00
2022-10-26T21:01:51.993Z,100.00
2022-10-26T21:04:18.627Z,100.00
2022-10-26T21:06:45.311Z,100.00
2022-10-26T21:09:11.899Z,100.00
2022-10-26T21:11:38.563Z,100.00
2022-10-26T21:14:06.543Z,100.00
2022-10-26T21:16:33.166Z,100.00
2022-10-26T21:19:00.407Z,100.00
2022-10-26T21:21:27.052Z,100.00
2022-10-26T21:23:53.630Z,100.00
2022-10-26T21:26:20.192Z,100.00
2022-10-26T21:28:46.741Z,100.00
2022-10-26T21:31:17.351Z,100.00
2022-10-26T21:33:44.220Z,100.00
2022-10-26T21:36:14.300Z,100.00
2022-10-26T21:38:41.528Z,100.00
2022-10-26T21:41:16.741Z,100.00
2022-10-26T21:43:49.224Z,100.00
2022-10-26T21:46:16.663Z,100.00
2022-10-26T21:48:43.430Z,100.00
2022-10-26T21:51:17.269Z,100.00
2022-10-26T21:53:43.954Z,100.00
2022-10-26T21:56:17.671Z,100.00
2022-10-26T21:58:44.578Z,100.00
2022-10-26T22:01:15.261Z,100.00
2022-10-26T22:03:42.415Z,100.00
2022-10-26T22:06:09.663Z,100.00
2022-10-26T22:08:36.879Z,100.00
2022-10-26T22:11:08.598Z,100.00
2022-10-26T22:13:37.151Z,100.00
2022-10-26T22:16:07.916Z,100.00
2022-10-26T22:18:34.911Z,100.00
2022-10-26T22:21:01.615Z,100.00
2022-10-26T22:23:28.275Z,100.00
2022-10-26T22:25:54.924Z,100.00
2022-10-26T22:28:21.515Z,100.00
2022-10-26T22:30:48.669Z,100.00
2022-10-26T22:33:15.935Z,100.00
2022-10-26T22:35:43.354Z,100.00
2022-10-26T22:38:12.445Z,100.00
2022-10-26T22:40:39.208Z,100.00
2022-10-26T22:43:06.843Z,100.00
2022-10-26T22:45:33.659Z,100.00
2022-10-26T22:48:00.426Z,100.00
2022-10-26T22:50:27.470Z,100.00
2022-10-26T22:52:54.444Z,100.00
2022-10-26T22:55:21.359Z,100.00
2022-10-26T22:57:48.786Z,100.00
2022-10-26T23:00:15.913Z,100.00
2022-10-26T23:02:42.753Z,100.00
2022-10-26T23:05:09.910Z,100.00
2022-10-26T23:07:37.011Z,100.00
2022-10-26T23:10:04.347Z,100.00
2022-10-26T23:12:31.029Z,100.00
2022-10-26T23:14:57.710Z,100.00
2022-10-26T23:17:24.558Z,100.00
2022-10-26T23:19:51.132Z,100.00
2022-10-26T23:22:17.684Z,100.00
2022-10-26T23:24:44.443Z,100.00
2022-10-26T23:27:11.172Z,100.00
2022-10-26T23:29:37.893Z,100.00
2022-10-26T23:32:04.827Z,100.00
2022-10-26T23:34:31.927Z,100.00
2022-10-26T23:36:59.190Z,100.00
2022-10-26T23:39:28.353Z,100.00
2022-10-26T23:41:55.441Z,100.00
2022-10-26T23:44:22.336Z,100.00
2022-10-26T23:46:49.281Z,100.00
2022-10-26T23:49:16.252Z,100.00
2022-10-26T23:51:43.216Z,100.00
2022-10-26T23:54:09.899Z,100.00
2022-10-26T23:56:36.853Z,100.00
2022-10-26T23:59:07.725Z,100.00
